Latest Weather Observations for Adelaide Airport

IDS60801

Issued at 8:01 pm CDT Friday 12 February 2016 (issued every 30 minutes, with the page automatically refreshed every 10 minutes)

About weather observations | Map of weather stations | Latest weather observations for SA | Other Formats
Station Details ID: 023034 Name: ADELAIDE AIRPORT Lat: -34.95 Lon: 138.52 Height: 2.0 m
Data from the previous 72 hours. | See also: Recent months at Adelaide Airport
Date/Time
CDT
Temp
°C
App
Temp
°C
Dew
Point
Rel
Hum
%
Delta-T
°C
Wind Press
QNH
hPa
Press
MSL
hPa
Rain
since 9 am
mm
Dir
 
Spd
km/h
Gust
km/h
Spd
kts
Gust
kts
12/07:30pm 23.3 21.2 17.1 68 3.8 SSW 24 33 13 18 1012.2 1012.2 0.0
12/07:00pm 24.4 22.4 17.3 64 4.4 SW 24 37 13 20 1012.0 1012.0 0.0
12/06:30pm 25.2 23.3 15.8 56 5.7 SW 20 28 11 15 1011.5 1011.5 0.0
12/06:00pm 25.9 23.7 14.5 49 6.8 SW 19 24 10 13 1011.4 1011.4 0.0
12/05:30pm 26.8 24.1 11.8 39 8.6 SW 17 20 9 11 1011.5 1011.5 0.0
12/05:00pm 26.6 24.3 11.8 39 8.5 WSW 15 19 8 10 1011.6 1011.6 0.0
12/04:30pm 26.6 24.5 13.6 44 7.7 SW 17 20 9 11 1011.8 1011.8 0.0
12/04:00pm 26.3 24.4 13.1 44 7.7 SW 15 20 8 11 1012.0 1012.0 0.0
12/03:30pm 26.8 24.6 13.2 43 8.0 SW 17 19 9 10 1012.1 1012.1 0.0
12/03:00pm 26.6 24.0 13.1 43 7.9 WSW 19 24 10 13 1012.6 1012.6 0.0
12/02:30pm 25.4 23.2 14.3 50 6.6 SW 19 26 10 14 1013.0 1013.0 0.0
12/02:00pm 25.3 23.7 16.0 56 5.7 WSW 19 26 10 14 1013.3 1013.3 0.0
12/01:30pm 24.9 23.7 16.2 58 5.3 WSW 17 26 9 14 1013.5 1013.5 0.0
12/01:00pm 23.8 22.5 14.7 56 5.4 SW 15 19 8 10 1013.9 1013.9 0.0
12/12:30pm 24.3 22.4 14.3 53 5.9 WSW 17 24 9 13 1014.2 1014.2 0.0
12/12:00pm 24.0 22.3 14.6 55 5.6 WSW 17 20 9 11 1014.5 1014.5 0.0
12/11:30am 23.7 22.4 13.6 53 5.9 WSW 13 17 7 9 1014.7 1014.7 0.0
12/11:00am 23.3 22.2 13.1 52 5.9 WSW 11 17 6 9 1014.8 1014.8 0.0
12/10:30am 23.4 22.4 12.3 49 6.3 WSW 9 15 5 8 1014.8 1014.8 0.0
12/10:00am 22.5 21.4 11.8 50 6.0 WSW 9 13 5 7 1015.0 1015.0 0.0
12/09:30am 22.2 21.3 12.5 54 5.5 SW 9 13 5 7 1015.3 1015.3 0.0
12/09:00am 21.6 21.6 12.4 55 5.2 SSW 4 9 2 5 1015.4 1015.4 0.0
12/08:30am 20.1 19.8 12.8 63 4.1 E 6 7 3 4 1015.4 1015.4 0.0
12/08:00am 18.3 19.2 13.0 71 3.0 CALM 0 0 0 0 1015.4 1015.4 0.0
12/07:30am 16.2 15.5 12.0 76 2.3 E 7 9 4 5 1015.1 1015.1 0.0
12/07:00am 14.7 15.2 11.5 81 1.7 CALM 0 7 0 4 1015.0 1015.0 0.0
12/06:30am 14.7 15.1 11.1 79 1.9 CALM 0 0 0 0 1014.8 1014.8 0.0
12/06:00am 14.8 14.2 11.6 81 1.7 SE 6 7 3 4 1014.5 1014.5 0.0
12/05:30am 15.3 14.3 11.0 75 2.3 E 7 9 4 5 1014.2 1014.2 0.0
12/05:00am 15.4 14.5 11.3 76 2.2 E 7 9 4 5 1014.1 1014.1 0.0
12/04:30am 16.1 15.1 12.3 78 2.1 NE 9 9 5 5 1014.0 1014.0 0.0
12/04:00am 16.8 16.2 12.3 75 2.5 SSE 7 9 4 5 1013.9 1013.9 0.0
12/03:30am 17.2 16.1 11.9 71 2.9 SW 9 11 5 6 1014.0 1014.0 0.0
12/03:00am 16.6 15.5 11.8 73 2.6 SSW 9 11 5 6 1014.2 1014.2 0.0
12/02:30am 17.1 15.5 11.6 70 3.0 SSE 11 13 6 7 1014.5 1014.5 0.0
12/02:00am 18.2 15.0 11.4 64 3.7 SE 19 24 10 13 1014.5 1014.5 0.0
12/01:30am 17.3 14.5 11.4 68 3.2 SSE 17 22 9 12 1015.0 1015.0 0.0
12/01:00am 17.9 15.2 11.7 67 3.4 SE 17 28 9 15 1015.2 1015.2 0.0
12/12:30am 18.2 15.8 11.4 64 3.7 SE 15 20 8 11 1015.2 1015.2 0.0
12/12:00am 18.4 16.0 11.4 63 3.8 SE 15 20 8 11 1015.4 1015.4 0.0
 
Date/Time
CDT
Temp
°C
App
Temp
°C
Dew
Point
Rel
Hum
%
Delta-T
°C
Wind Press
QNH
hPa
Press
MSL
hPa
Rain
since 9 am
mm
Dir
 
Spd
km/h
Gust
km/h
Spd
kts
Gust
kts
11/11:30pm 18.5 15.8 11.8 65 3.7 SE 17 28 9 15 1015.6 1015.6 0.0
11/11:00pm 19.0 15.9 11.7 62 4.0 SE 19 26 10 14 1015.7 1015.7 0.0
11/10:30pm 18.9 16.3 12.0 64 3.8 SSE 17 24 9 13 1016.1 1016.1 0.0
11/10:00pm 19.1 15.6 12.3 64 3.8 SSE 22 30 12 16 1015.9 1015.9 0.0
11/09:30pm 19.8 16.7 12.1 61 4.3 SSE 20 26 11 14 1015.8 1015.8 0.0
11/09:00pm 20.3 17.6 11.8 58 4.7 S 17 24 9 13 1015.2 1015.2 0.0
11/08:30pm 21.2 17.9 11.7 54 5.3 SE 20 28 11 15 1014.7 1014.7 0.0
11/08:00pm 22.3 19.2 12.2 52 5.7 SE 20 30 11 16 1014.3 1014.3 0.0
11/07:30pm 23.9 18.9 12.1 47 6.7 SE 30 39 16 21 1014.1 1014.1 0.0
11/07:00pm 25.8 21.0 10.4 38 8.6 SE 26 33 14 18 1013.9 1013.9 0.0
11/06:30pm 27.5 23.2 9.2 31 10.1 SSE 22 30 12 16 1013.4 1013.4 0.0
11/06:00pm 28.9 24.1 8.7 28 11.1 SSE 24 32 13 17 1013.2 1013.2 0.0
11/05:30pm 29.6 24.5 7.7 25 11.9 S 24 32 13 17 1013.1 1013.1 0.0
11/05:00pm 29.9 25.5 7.6 24 12.1 SSE 20 28 11 15 1013.0 1013.0 0.0
11/04:30pm 30.2 25.6 6.4 22 12.7 S 20 33 11 18 1013.1 1013.1 0.0
11/04:00pm 31.3 26.4 6.9 21 13.2 SSW 22 30 12 16 1013.3 1013.3 0.0
11/03:30pm 30.7 26.6 8.8 25 12.2 SSE 20 32 11 17 1013.3 1013.3 0.0
11/03:00pm 30.5 26.1 9.0 26 12.0 S 22 33 12 18 1013.7 1013.7 0.0
11/02:30pm 31.5 27.3 8.2 23 12.9 S 20 30 11 16 1013.7 1013.7 0.0
11/02:00pm 31.1 26.5 8.3 24 12.6 S 22 32 12 17 1013.8 1013.8 0.0
11/01:30pm 30.0 26.5 8.7 26 11.8 S 17 28 9 15 1013.9 1013.9 0.0
11/01:00pm 30.2 27.8 10.1 28 11.4 SSE 13 20 7 11 1014.2 1014.2 0.0
11/12:30pm 28.3 26.9 10.9 34 9.9 S 9 17 5 9 1014.7 1014.7 0.0
11/12:00pm 27.3 26.2 11.8 38 8.9 WNW 9 13 5 7 1015.0 1015.0 0.0
11/11:30am 26.5 25.3 10.2 36 9.1 N 7 13 4 7 1015.2 1015.2 0.0
11/11:00am 25.8 24.6 10.3 37 8.6 N 7 11 4 6 1015.4 1015.4 0.0
11/10:30am 24.9 23.4 10.7 40 7.9 NNW 9 11 5 6 1015.6 1015.6 0.0
11/10:00am 23.7 22.9 10.9 44 7.1 E 6 9 3 5 1015.9 1015.9 0.0
11/09:30am 22.6 21.7 11.3 48 6.3 ENE 7 9 4 5 1016.1 1016.1 0.0
11/09:00am 21.6 19.2 11.5 52 5.6 SE 15 20 8 11 1016.3 1016.3 0.0
11/08:30am 20.3 16.7 11.8 58 4.7 SE 22 28 12 15 1016.2 1016.2 0.0
11/08:00am 19.2 15.3 12.2 64 3.9 SE 24 33 13 18 1016.0 1016.0 0.0
11/07:30am 17.9 14.1 12.3 70 3.1 SSE 24 32 13 17 1015.7 1015.7 0.0
11/07:00am 17.2 13.7 12.1 72 2.8 SE 22 28 12 15 1015.4 1015.4 0.0
11/06:30am 17.2 12.5 12.1 72 2.8 SE 28 35 15 19 1015.3 1015.3 0.0
11/06:00am 17.2 13.4 12.3 73 2.7 SE 24 33 13 18 1014.9 1014.9 0.0
11/05:30am 17.2 13.8 12.5 74 2.6 SE 22 30 12 16 1014.6 1014.6 0.0
11/05:00am 17.4 13.6 12.5 73 2.7 SE 24 32 13 17 1014.4 1014.4 0.0
11/04:30am 16.8 14.0 12.5 76 2.4 SE 19 28 10 15 1014.1 1014.1 0.0
11/04:00am 17.0 13.5 12.1 73 2.7 SE 22 32 12 17 1014.0 1014.0 0.0
11/03:30am 17.4 14.8 12.1 71 2.9 SSE 17 22 9 12 1014.0 1014.0 0.0
11/03:00am 17.6 15.4 12.0 69 3.1 S 15 17 8 9 1014.0 1014.0 0.0
11/02:30am 17.6 15.8 12.2 70 3.0 S 13 19 7 10 1014.0 1014.0 0.0
11/02:00am 17.9 15.3 12.1 69 3.2 SSE 17 20 9 11 1014.2 1014.2 0.0
11/01:30am 18.2 15.2 12.0 67 3.4 SSE 19 26 10 14 1014.3 1014.3 0.0
11/01:00am 18.3 15.3 11.9 66 3.5 S 19 26 10 14 1014.6 1014.6 0.0
11/12:30am 18.5 15.4 11.6 64 3.8 SSW 19 28 10 15 1014.6 1014.6 0.0
11/12:00am 19.0 15.4 9.8 55 4.9 SSW 19 26 10 14 1014.6 1014.6 0.0
 
Date/Time
CDT
Temp
°C
App
Temp
°C
Dew
Point
Rel
Hum
%
Delta-T
°C
Wind Press
QNH
hPa
Press
MSL
hPa
Rain
since 9 am
mm
Dir
 
Spd
km/h
Gust
km/h
Spd
kts
Gust
kts
10/11:30pm 19.5 16.0 7.3 45 6.2 SSW 15 19 8 10 1014.7 1014.7 0.0
10/11:00pm 19.8 17.1 8.9 49 5.7 S 13 15 7 8 1014.5 1014.5 0.0
10/10:30pm 20.0 17.7 10.4 54 5.2 SSW 13 17 7 9 1014.4 1014.4 0.0
10/10:00pm 20.1 17.2 9.6 51 5.6 SW 15 19 8 10 1014.3 1014.3 0.0
10/09:30pm 20.5 17.0 8.9 47 6.1 S 17 22 9 12 1014.2 1014.2 0.0
10/09:00pm 21.7 18.0 6.5 37 7.7 SSE 15 22 8 12 1014.0 1014.0 0.0
10/08:30pm 22.0 17.7 5.3 33 8.3 SE 17 24 9 13 1013.9 1013.9 0.0
10/08:00pm 23.0 18.6 4.6 30 9.1 SSE 17 24 9 13 1013.7 1013.7 0.0
10/07:30pm 24.4 20.0 7.5 34 8.9 SE 20 28 11 15 1013.2 1013.2 0.0
10/07:00pm 26.0 21.8 9.9 36 8.9 SSE 22 30 12 16 1012.8 1012.8 0.0
10/06:30pm 27.5 22.2 9.9 33 9.8 SSE 28 32 15 17 1012.4 1012.4 0.0
10/06:00pm 29.3 25.0 9.2 28 11.2 SSE 22 30 12 16 1012.1 1012.1 0.0
10/05:30pm 30.0 25.9 10.0 29 11.3 SSE 22 30 12 16 1011.7 1011.7 0.0
10/05:00pm 30.6 25.8 10.2 28 11.6 SSE 26 32 14 17 1011.7 1011.7 0.0
10/04:30pm 31.1 26.5 11.0 29 11.6 S 26 37 14 20 1011.6 1011.6 0.0
10/04:00pm 29.4 27.8 15.0 41 8.8 SSE 17 26 9 14 1011.8 1011.8 0.0
10/03:30pm 29.5 26.1 13.8 38 9.4 SW 24 30 13 16 1012.0 1012.0 0.0
10/03:00pm 27.7 24.2 15.4 47 7.5 SW 28 35 15 19 1012.5 1012.5 0.0
10/02:30pm 27.5 24.5 16.7 51 6.7 WSW 28 32 15 17 1012.7 1012.7 0.0
10/02:00pm 28.3 26.4 16.6 49 7.3 WSW 22 26 12 14 1013.0 1013.0 0.0
10/01:30pm 27.9 25.6 14.6 44 8.0 SW 20 24 11 13 1013.3 1013.3 0.0
10/01:00pm 27.4 24.8 16.0 49 7.0 SW 24 30 13 16 1013.7 1013.7 0.0
10/12:30pm 29.5 28.0 14.2 39 9.2 W 15 20 8 11 1014.0 1014.0 0.0
10/12:00pm 29.5 26.9 6.3 23 12.3 NNE 9 11 5 6 1014.4 1014.4 0.0
10/11:30am 28.9 26.5 7.0 25 11.7 S 9 13 5 7 1014.7 1014.7 0.0
10/11:00am 27.7 25.5 6.4 26 11.2 SW 7 11 4 6 1015.1 1015.1 0.0
10/10:30am 25.2 23.6 11.4 42 7.8 WSW 11 15 6 8 1015.3 1015.3 0.0
10/10:00am 23.7 21.4 10.5 43 7.3 WSW 13 19 7 10 1015.2 1015.2 0.0
10/09:30am 24.3 21.7 7.6 34 8.8 W 11 13 6 7 1015.2 1015.2 0.0
10/09:00am 23.6 21.5 5.9 32 9.0 WNW 6 9 3 5 1015.0 1015.0 0.0
10/08:30am 22.5 21.5 5.8 34 8.4 CALM 0 0 0 0 1015.1 1015.1 0.0
10/08:00am 20.6 19.3 9.8 50 5.8 SE 7 7 4 4 1015.0 1015.0 0.0
10/07:30am 17.9 17.5 8.1 52 5.0 CALM 0 0 0 0 1014.5 1014.5 0.0
10/07:00am 16.2 14.5 8.3 59 4.0 S 7 7 4 4 1014.4 1014.4 0.0
10/06:30am 16.5 15.9 7.5 55 4.5 CALM 0 0 0 0 1014.1 1014.1 0.0
10/06:00am 16.2 15.8 8.3 59 4.0 CALM 0 0 0 0 1013.8 1013.8 0.0
10/05:30am 18.0 16.2 7.3 49 5.4 NNE 6 7 3 4 1013.7 1013.7 0.0
10/05:00am 18.8 16.3 6.6 45 6.1 NE 9 9 5 5 1013.6 1013.6 0.0
10/04:30am 18.7 16.2 6.7 45 6.0 NE 9 11 5 6 1013.6 1013.6 0.0
10/04:00am 18.8 15.2 5.2 40 6.6 SE 13 15 7 8 1013.7 1013.7 0.0
10/03:30am 19.4 16.9 5.0 38 7.0 SSE 7 9 4 5 1013.8 1013.8 0.0
10/03:00am 19.2 17.2 6.1 42 6.5 SSW 6 7 3 4 1013.7 1013.7 0.0
10/02:30am 19.5 17.4 6.5 42 6.5 WSW 7 9 4 5 1013.9 1013.9 0.0
10/02:00am 19.0 17.2 5.5 41 6.6 SSW 4 7 2 4 1014.1 1014.1 0.0
10/01:30am 19.1 18.1 5.4 40 6.7 CALM 0 0 0 0 1014.2 1014.2 0.0
10/01:00am 19.4 16.1 4.4 37 7.2 ESE 11 13 6 7 1014.5 1014.5 0.0
10/12:30am 20.4 16.2 3.6 33 8.0 SE 15 19 8 10 1014.9 1014.9 0.0
10/12:00am 21.7 16.9 2.6 28 9.0 SSE 17 22 9 12 1015.0 1015.0 0.0
 
Date/Time
CDT
Temp
°C
App
Temp
°C
Dew
Point
Rel
Hum
%
Delta-T
°C
Wind Press
QNH
hPa
Press
MSL
hPa
Rain
since 9 am
mm
Dir
 
Spd
km/h
Gust
km/h
Spd
kts
Gust
kts
09/11:30pm 21.8 17.8 2.8 28 9.0 SSE 13 15 7 8 1015.0 1015.0 0.0
09/11:00pm 21.9 18.2 2.6 28 9.1 SE 11 13 6 7 1015.2 1015.2 0.0
09/10:30pm 23.0 19.0 2.6 26 9.7 SE 13 15 7 8 1015.1 1015.1 0.0
09/10:00pm 23.5 19.4 6.3 33 8.8 SE 17 20 9 11 1015.2 1015.2 0.0
09/09:30pm 24.6 20.6 6.7 31 9.3 SE 17 22 9 12 1015.0 1015.0 0.0
09/09:00pm 25.6 21.5 4.4 25 10.6 SE 15 20 8 11 1014.9 1014.9 0.0
09/08:30pm 26.5 22.5 6.7 28 10.4 SE 17 26 9 14 1014.8 1014.8 0.0

Other Formats:

Comma delimited format used in spreadsheet applications
http://www.bom.gov.au/fwo/IDS60801/IDS60801.94672.axf

JavaScript Object Notation format (JSON) in row-major order
http://www.bom.gov.au/fwo/IDS60801/IDS60801.94672.json